JIGSW01 EGVN-EGOV

Flight info

Callsign JIGSW01
Flight time N/A
Altitude 2000
Route VFR
Aircraft A400/H-V/N

Departure

Time 2026-05-05 11:30
Airport RAF Brize Norton (EGVN)

Arrival

Time N/A
Airport Anglesey Airport (EGOV)
Time Latitude Longitude Altitude Speed Heading
2026-05-05 11:15 51.75844 -1.57213 273 ft 0 kts 288°
2026-05-05 11:25 51.75847 -1.57225 277 ft 4 kts 291°
2026-05-05 11:25 51.75900 -1.57246 273 ft 10 kts 53°
2026-05-05 11:25 51.75887 -1.57122 273 ft 14 kts 117°
2026-05-05 11:25 51.75799 -1.56946 273 ft 30 kts 145°
2026-05-05 11:26 51.75588 -1.56820 273 ft 32 kts 164°
2026-05-05 11:26 51.75377 -1.56718 273 ft 31 kts 162°
2026-05-05 11:26 51.75176 -1.56623 274 ft 30 kts 168°
2026-05-05 11:26 51.75019 -1.56769 278 ft 27 kts 242°
2026-05-05 11:27 51.74922 -1.57019 274 ft 26 kts 237°
2026-05-05 11:27 51.74859 -1.57182 277 ft 26 kts 240°
2026-05-05 11:27 51.74744 -1.57474 273 ft 38 kts 237°
2026-05-05 11:27 51.74610 -1.57820 273 ft 35 kts 239°
2026-05-05 11:28 51.74545 -1.58145 273 ft 29 kts 289°
2026-05-05 11:28 51.74638 -1.58395 273 ft 23 kts 297°
2026-05-05 11:28 51.74628 -1.58633 275 ft 22 kts 253°
2026-05-05 11:28 51.74585 -1.58866 273 ft 22 kts 253°
2026-05-05 11:29 51.74541 -1.59100 273 ft 22 kts 253°
2026-05-05 11:29 51.74501 -1.59331 273 ft 22 kts 251°
2026-05-05 11:29 51.74457 -1.59563 273 ft 22 kts 253°
2026-05-05 11:29 51.74433 -1.59836 278 ft 29 kts 289°
2026-05-05 11:30 51.74545 -1.60063 273 ft 24 kts 334°
2026-05-05 11:30 51.74671 -1.60048 273 ft 20 kts 56°
2026-05-05 11:30 51.74820 -1.59353 274 ft 119 kts 75°
2026-05-05 11:30 51.75118 -1.57791 892 ft 154 kts 65°
2026-05-05 11:31 51.75590 -1.56143 1804 ft 177 kts 64°
2026-05-05 11:31 51.76226 -1.54147 1974 ft 225 kts 50°
2026-05-05 11:31 51.77563 -1.52782 1991 ft 237 kts 12°
2026-05-05 11:31 51.79193 -1.53099 2002 ft 243 kts 335°
2026-05-05 11:32 51.80383 -1.55018 1998 ft 248 kts 298°
2026-05-05 11:32 51.80576 -1.57777 1997 ft 256 kts 259°
2026-05-05 11:32 51.79635 -1.60215 2000 ft 263 kts 223°
2026-05-05 11:32 51.78178 -1.62027 2000 ft 264 kts 220°
2026-05-05 11:33 51.76820 -1.64012 1998 ft 263 kts 231°
2026-05-05 11:33 51.75991 -1.66549 1996 ft 258 kts 259°
2026-05-05 11:33 51.75897 -1.69401 2000 ft 254 kts 278°
2026-05-05 11:33 51.76111 -1.72225 1996 ft 253 kts 282°
2026-05-05 11:34 51.76395 -1.75058 2011 ft 263 kts 282°
2026-05-05 11:34 51.76691 -1.77998 1999 ft 264 kts 283°
2026-05-05 11:34 51.77012 -1.80877 2008 ft 257 kts 284°
2026-05-05 11:34 51.77329 -1.83691 2008 ft 254 kts 283°
2026-05-05 11:35 51.77414 -1.86541 2005 ft 257 kts 265°
2026-05-05 11:35 51.76882 -1.89310 2011 ft 260 kts 252°
2026-05-05 11:35 51.76438 -1.92099 1750 ft 252 kts 264°
2026-05-05 11:35 51.76255 -1.94885 1272 ft 250 kts 270°
2026-05-05 11:36 51.76201 -1.97722 1240 ft 256 kts 272°
2026-05-05 11:36 51.76192 -2.00680 1475 ft 266 kts 272°
2026-05-05 11:36 51.76178 -2.03532 1531 ft 246 kts 272°
2026-05-05 11:36 51.76151 -2.06329 1535 ft 255 kts 272°
2026-05-05 11:37 51.76109 -2.09303 1617 ft 277 kts 271°
2026-05-05 11:37 51.76048 -2.12520 1926 ft 294 kts 270°
2026-05-05 11:37 51.75970 -2.15838 2019 ft 297 kts 271°
2026-05-05 11:37 51.75881 -2.19170 2033 ft 297 kts 271°
2026-05-05 11:38 51.75788 -2.22460 2027 ft 296 kts 270°
2026-05-05 11:38 51.75692 -2.25826 2026 ft 296 kts 270°
2026-05-05 11:38 51.75600 -2.29106 2023 ft 295 kts 270°
2026-05-05 11:38 51.75508 -2.32410 2025 ft 295 kts 270°
2026-05-05 11:39 51.75417 -2.35732 2029 ft 296 kts 270°
2026-05-05 11:39 51.75325 -2.39056 2019 ft 297 kts 270°
2026-05-05 11:39 51.75232 -2.42391 2018 ft 297 kts 271°
2026-05-05 11:39 51.75137 -2.45734 2024 ft 297 kts 270°
2026-05-05 11:40 51.75041 -2.49075 2022 ft 299 kts 271°
2026-05-05 11:40 51.74944 -2.52392 2015 ft 298 kts 270°
2026-05-05 11:40 51.74843 -2.55740 2009 ft 298 kts 270°
2026-05-05 11:40 51.74739 -2.59108 2007 ft 302 kts 270°
2026-05-05 11:41 51.74635 -2.62491 2006 ft 299 kts 270°
2026-05-05 11:41 51.74531 -2.65810 1995 ft 293 kts 270°
2026-05-05 11:41 51.74429 -2.69050 2011 ft 286 kts 270°
2026-05-05 11:41 51.74331 -2.72322 2003 ft 298 kts 270°
2026-05-05 11:42 51.74229 -2.75663 2003 ft 302 kts 270°
2026-05-05 11:42 51.74122 -2.79054 1996 ft 302 kts 270°
2026-05-05 11:42 51.74012 -2.82439 2006 ft 303 kts 269°
2026-05-05 11:42 51.73901 -2.85831 1996 ft 302 kts 269°
2026-05-05 11:43 51.73789 -2.89219 1993 ft 302 kts 270°
2026-05-05 11:43 51.73679 -2.92574 1993 ft 296 kts 270°
2026-05-05 11:43 51.73572 -2.95831 2004 ft 288 kts 270°
2026-05-05 11:43 51.73467 -2.99142 1999 ft 306 kts 270°
2026-05-05 11:44 51.73358 -3.02690 1997 ft 325 kts 270°
2026-05-05 11:44 51.73241 -3.06392 2003 ft 336 kts 269°
2026-05-05 11:44 51.73117 -3.10114 1997 ft 324 kts 269°
2026-05-05 11:44 51.72991 -3.13602 1996 ft 308 kts 270°
2026-05-05 11:45 51.72865 -3.17025 2009 ft 304 kts 269°
2026-05-05 11:45 51.72744 -3.20429 1995 ft 303 kts 270°
2026-05-05 11:45 51.72634 -3.23829 2013 ft 303 kts 271°
2026-05-05 11:45 51.72831 -3.27195 2012 ft 301 kts 282°
2026-05-05 11:46 51.73212 -3.30505 2015 ft 299 kts 284°
2026-05-05 11:46 51.73675 -3.33768 2026 ft 299 kts 286°
2026-05-05 11:46 51.74182 -3.36986 2015 ft 297 kts 287°
2026-05-05 11:46 51.74710 -3.40219 2026 ft 299 kts 287°
2026-05-05 11:47 51.75242 -3.43454 2026 ft 297 kts 287°
2026-05-05 11:47 51.75764 -3.46648 2021 ft 293 kts 286°
2026-05-05 11:47 51.76286 -3.49877 2036 ft 298 kts 287°
2026-05-05 11:47 51.76804 -3.53121 2022 ft 297 kts 287°
2026-05-05 11:48 51.77828 -3.59603 2020 ft 297 kts 287°
2026-05-05 11:48 51.78335 -3.62842 2036 ft 298 kts 286°
2026-05-05 11:48 51.78841 -3.66086 2028 ft 298 kts 286°
2026-05-05 11:49 51.79350 -3.69347 2032 ft 300 kts 287°
2026-05-05 11:49 51.79855 -3.72573 2029 ft 300 kts 286°
2026-05-05 11:49 51.80371 -3.75885 2037 ft 301 kts 286°
2026-05-05 11:49 51.80871 -3.79120 2039 ft 300 kts 286°
2026-05-05 11:50 51.81377 -3.82397 2039 ft 301 kts 287°
2026-05-05 11:50 51.81884 -3.85678 2030 ft 300 kts 287°
2026-05-05 11:50 51.82389 -3.88951 2033 ft 300 kts 287°
2026-05-05 11:50 51.82894 -3.92228 2036 ft 300 kts 286°
2026-05-05 11:51 51.83400 -3.95517 2041 ft 301 kts 286°
2026-05-05 11:51 51.83901 -3.98797 2045 ft 300 kts 287°
2026-05-05 11:51 51.84403 -4.02070 2042 ft 299 kts 287°
2026-05-05 11:51 51.84898 -4.05300 2038 ft 299 kts 287°
2026-05-05 11:52 51.85397 -4.08556 2044 ft 298 kts 287°
2026-05-05 11:52 51.85892 -4.11806 2052 ft 298 kts 287°
2026-05-05 11:52 51.86385 -4.15063 2047 ft 297 kts 286°
2026-05-05 11:52 51.86878 -4.18317 2045 ft 298 kts 286°
2026-05-05 11:53 51.87373 -4.21576 2044 ft 297 kts 287°
2026-05-05 11:53 51.87901 -4.24820 2057 ft 298 kts 288°
2026-05-05 11:53 51.88487 -4.28028 2047 ft 297 kts 290°
2026-05-05 11:53 51.89145 -4.31188 2052 ft 296 kts 292°
2026-05-05 11:54 51.89886 -4.34301 2057 ft 295 kts 295°
2026-05-05 11:54 51.90701 -4.37335 2048 ft 293 kts 297°
2026-05-05 11:54 51.91590 -4.40298 2045 ft 293 kts 300°
2026-05-05 11:54 51.92559 -4.43199 2047 ft 293 kts 302°
2026-05-05 11:55 51.93610 -4.46040 2057 ft 293 kts 304°
2026-05-05 11:55 51.94715 -4.48762 2054 ft 292 kts 307°
2026-05-05 11:55 51.95904 -4.51433 2054 ft 291 kts 309°
2026-05-05 11:55 51.97160 -4.54016 2054 ft 291 kts 312°
2026-05-05 11:56 51.98481 -4.56514 2057 ft 291 kts 314°
2026-05-05 11:56 51.99857 -4.58908 2059 ft 285 kts 316°
2026-05-05 11:56 52.01292 -4.60907 2063 ft 257 kts 327°
2026-05-05 11:56 52.02830 -4.62205 2067 ft 244 kts 341°
2026-05-05 11:57 52.04456 -4.62726 1855 ft 240 kts 358°
2026-05-05 11:57 52.06177 -4.62643 1590 ft 256 kts
2026-05-05 11:57 52.08034 -4.62357 1323 ft 277 kts
2026-05-05 11:57 52.09980 -4.62006 1041 ft 283 kts
2026-05-05 11:58 52.11943 -4.61641 770 ft 284 kts
2026-05-05 11:58 52.13905 -4.61276 519 ft 284 kts
2026-05-05 11:58 52.15843 -4.60915 264 ft 283 kts
2026-05-05 11:58 52.17789 -4.60553 79 ft 281 kts
2026-05-05 11:59 52.19732 -4.60192 57 ft 280 kts
2026-05-05 11:59 52.21471 -4.59876 20 ft 0 kts
2026-05-05 11:59 52.22462 -4.59707 243 ft 179 kts
2026-05-05 11:59 52.23506 -4.59538 463 ft 201 kts